sensor_id;sensor_type;location;lat;lon;timestamp;pressure;altitude;pressure_sealevel;temperature;humidity
16525;BME280;8375;33.594;-117.718;2023-04-27T00:00:10;99935.72;;;24.80;49.35
16525;BME280;8375;33.594;-117.718;2023-04-27T00:02:41;99931.34;;;24.67;48.80
16525;BME280;8375;33.594;-117.718;2023-04-27T00:05:10;99931.88;;;24.75;49.17
16525;BME280;8375;33.594;-117.718;2023-04-27T00:07:38;99934.22;;;24.90;48.81
16525;BME280;8375;33.594;-117.718;2023-04-27T00:10:08;99936.13;;;25.02;48.73
16525;BME280;8375;33.594;-117.718;2023-04-27T00:12:37;99925.47;;;24.58;49.08
16525;BME280;8375;33.594;-117.718;2023-04-27T00:15:08;99922.03;;;24.57;49.10
16525;BME280;8375;33.594;-117.718;2023-04-27T00:17:37;99928.47;;;24.68;49.60
16525;BME280;8375;33.594;-117.718;2023-04-27T00:20:09;99935.81;;;24.66;49.26
16525;BME280;8375;33.594;-117.718;2023-04-27T00:22:38;99931.28;;;24.73;48.82
16525;BME280;8375;33.594;-117.718;2023-04-27T00:25:08;99944.50;;;24.80;49.03
16525;BME280;8375;33.594;-117.718;2023-04-27T00:27:37;99939.66;;;24.77;48.95
16525;BME280;8375;33.594;-117.718;2023-04-27T00:30:06;99937.34;;;24.81;48.39
16525;BME280;8375;33.594;-117.718;2023-04-27T00:32:35;99936.75;;;24.79;48.64
16525;BME280;8375;33.594;-117.718;2023-04-27T00:35:04;99938.22;;;24.74;48.57
16525;BME280;8375;33.594;-117.718;2023-04-27T00:37:35;99936.25;;;24.63;49.05
16525;BME280;8375;33.594;-117.718;2023-04-27T00:40:04;99939.16;;;24.61;49.95
16525;BME280;8375;33.594;-117.718;2023-04-27T00:42:34;99944.06;;;24.58;49.37
16525;BME280;8375;33.594;-117.718;2023-04-27T00:45:03;99932.72;;;24.19;50.14
16525;BME280;8375;33.594;-117.718;2023-04-27T00:47:32;99936.66;;;24.09;51.47
16525;BME280;8375;33.594;-117.718;2023-04-27T00:50:02;99933.13;;;24.22;51.33
16525;BME280;8375;33.594;-117.718;2023-04-27T00:52:36;99934.59;;;24.11;52.19
16525;BME280;8375;33.594;-117.718;2023-04-27T00:55:05;99925.78;;;24.17;51.56
16525;BME280;8375;33.594;-117.718;2023-04-27T00:57:35;99931.22;;;24.29;51.90
16525;BME280;8375;33.594;-117.718;2023-04-27T01:00:05;99937.34;;;24.30;52.11
16525;BME280;8375;33.594;-117.718;2023-04-27T01:02:36;99938.94;;;24.38;52.56
16525;BME280;8375;33.594;-117.718;2023-04-27T01:05:05;99947.09;;;24.36;52.54
16525;BME280;8375;33.594;-117.718;2023-04-27T01:07:38;99937.34;;;24.30;52.41
16525;BME280;8375;33.594;-117.718;2023-04-27T01:10:08;99943.94;;;24.21;52.39
16525;BME280;8375;33.594;-117.718;2023-04-27T01:12:37;99943.50;;;24.24;52.88
16525;BME280;8375;33.594;-117.718;2023-04-27T01:15:07;99939.06;;;24.17;53.03
16525;BME280;8375;33.594;-117.718;2023-04-27T01:17:36;99938.47;;;24.15;53.15
16525;BME280;8375;33.594;-117.718;2023-04-27T01:20:06;99935.09;;;24.01;53.07
16525;BME280;8375;33.594;-117.718;2023-04-27T01:22:38;99932.44;;;24.01;53.33
16525;BME280;8375;33.594;-117.718;2023-04-27T01:25:09;99942.84;;;23.96;53.44
16525;BME280;8375;33.594;-117.718;2023-04-27T01:27:38;99942.66;;;23.91;53.79
16525;BME280;8375;33.594;-117.718;2023-04-27T01:30:07;99942.34;;;23.74;53.85
16525;BME280;8375;33.594;-117.718;2023-04-27T01:32:37;99945.00;;;23.67;54.30
16525;BME280;8375;33.594;-117.718;2023-04-27T01:35:06;99946.69;;;23.55;53.70
16525;BME280;8375;33.594;-117.718;2023-04-27T01:37:35;99948.16;;;23.44;54.36
16525;BME280;8375;33.594;-117.718;2023-04-27T01:40:05;99955.50;;;23.35;54.39
16525;BME280;8375;33.594;-117.718;2023-04-27T01:42:36;99958.16;;;23.22;53.99
16525;BME280;8375;33.594;-117.718;2023-04-27T01:45:06;99951.47;;;23.12;54.45
16525;BME280;8375;33.594;-117.718;2023-04-27T01:47:36;99963.53;;;22.81;54.23
16525;BME280;8375;33.594;-117.718;2023-04-27T01:50:06;99970.66;;;22.54;55.10
16525;BME280;8375;33.594;-117.718;2023-04-27T01:52:35;99969.03;;;22.53;55.46
16525;BME280;8375;33.594;-117.718;2023-04-27T01:55:04;99962.53;;;22.49;55.43
16525;BME280;8375;33.594;-117.718;2023-04-27T01:57:38;99966.34;;;22.39;56.21
16525;BME280;8375;33.594;-117.718;2023-04-27T02:00:08;99966.97;;;22.41;56.04
16525;BME280;8375;33.594;-117.718;2023-04-27T02:02:37;99971.19;;;22.22;56.35
16525;BME280;8375;33.594;-117.718;2023-04-27T02:05:06;99968.50;;;22.09;56.98
16525;BME280;8375;33.594;-117.718;2023-04-27T02:07:36;99966.88;;;22.08;57.45
16525;BME280;8375;33.594;-117.718;2023-04-27T02:10:06;99963.22;;;22.02;57.09
16525;BME280;8375;33.594;-117.718;2023-04-27T02:12:37;99978.44;;;21.87;57.71
16525;BME280;8375;33.594;-117.718;2023-04-27T02:15:08;99976.34;;;21.75;57.50
16525;BME280;8375;33.594;-117.718;2023-04-27T02:17:36;99988.41;;;21.56;58.62
16525;BME280;8375;33.594;-117.718;2023-04-27T02:20:07;99986.38;;;21.51;59.58
16525;BME280;8375;33.594;-117.718;2023-04-27T02:22:40;99982.50;;;21.47;59.46
16525;BME280;8375;33.594;-117.718;2023-04-27T02:25:11;99989.56;;;21.40;59.94
16525;BME280;8375;33.594;-117.718;2023-04-27T02:27:41;99986.22;;;21.24;60.48
16525;BME280;8375;33.594;-117.718;2023-04-27T02:30:12;99993.38;;;21.02;60.60
16525;BME280;8375;33.594;-117.718;2023-04-27T02:32:44;99990.50;;;20.97;60.88
16525;BME280;8375;33.594;-117.718;2023-04-27T02:35:13;99998.34;;;20.90;61.53
16525;BME280;8375;33.594;-117.718;2023-04-27T02:37:42;99994.91;;;20.90;61.24
16525;BME280;8375;33.594;-117.718;2023-04-27T02:40:11;100002.94;;;20.81;61.10
16525;BME280;8375;33.594;-117.718;2023-04-27T02:42:41;100002.34;;;20.64;61.52
16525;BME280;8375;33.594;-117.718;2023-04-27T02:45:10;100004.44;;;20.47;62.56
16525;BME280;8375;33.594;-117.718;2023-04-27T02:47:39;100009.63;;;20.41;62.71
16525;BME280;8375;33.594;-117.718;2023-04-27T02:50:09;100002.59;;;20.26;63.44
16525;BME280;8375;33.594;-117.718;2023-04-27T02:52:39;100010.88;;;20.23;64.25
16525;BME280;8375;33.594;-117.718;2023-04-27T02:55:08;100020.34;;;20.17;65.01
16525;BME280;8375;33.594;-117.718;2023-04-27T02:57:37;100024.00;;;20.01;64.94
16525;BME280;8375;33.594;-117.718;2023-04-27T03:00:09;100024.31;;;19.91;65.78
16525;BME280;8375;33.594;-117.718;2023-04-27T03:02:38;100024.00;;;19.86;65.92
16525;BME280;8375;33.594;-117.718;2023-04-27T03:05:07;100026.63;;;19.71;66.72
16525;BME280;8375;33.594;-117.718;2023-04-27T03:07:36;100031.56;;;19.59;67.41
16525;BME280;8375;33.594;-117.718;2023-04-27T03:10:05;100044.53;;;19.46;67.93
16525;BME280;8375;33.594;-117.718;2023-04-27T03:12:34;100044.56;;;19.23;68.52
16525;BME280;8375;33.594;-117.718;2023-04-27T03:15:03;100053.19;;;19.16;69.38
16525;BME280;8375;33.594;-117.718;2023-04-27T03:17:34;100050.97;;;19.05;69.39
16525;BME280;8375;33.594;-117.718;2023-04-27T03:20:03;100059.31;;;18.85;70.59
16525;BME280;8375;33.594;-117.718;2023-04-27T03:22:35;100058.38;;;18.78;71.19
16525;BME280;8375;33.594;-117.718;2023-04-27T03:25:04;100057.69;;;18.61;71.76
16525;BME280;8375;33.594;-117.718;2023-04-27T03:27:33;100064.50;;;18.47;72.80
16525;BME280;8375;33.594;-117.718;2023-04-27T03:30:02;100064.28;;;18.25;73.22
16525;BME280;8375;33.594;-117.718;2023-04-27T03:32:31;100080.81;;;18.02;74.83
16525;BME280;8375;33.594;-117.718;2023-04-27T03:35:01;100081.63;;;17.86;75.32
16525;BME280;8375;33.594;-117.718;2023-04-27T03:37:30;100086.13;;;17.69;76.00
16525;BME280;8375;33.594;-117.718;2023-04-27T03:39:59;100090.88;;;17.66;76.90
16525;BME280;8375;33.594;-117.718;2023-04-27T03:42:28;100086.16;;;17.53;77.43
16525;BME280;8375;33.594;-117.718;2023-04-27T03:44:57;100089.41;;;17.55;77.50
16525;BME280;8375;33.594;-117.718;2023-04-27T03:47:26;100092.53;;;17.50;77.66
16525;BME280;8375;33.594;-117.718;2023-04-27T03:49:55;100101.56;;;17.31;78.63
16525;BME280;8375;33.594;-117.718;2023-04-27T03:52:25;100104.69;;;17.26;79.64
16525;BME280;8375;33.594;-117.718;2023-04-27T03:54:54;100102.72;;;17.28;79.70
16525;BME280;8375;33.594;-117.718;2023-04-27T03:57:23;100113.72;;;17.24;80.53
16525;BME280;8375;33.594;-117.718;2023-04-27T03:59:51;100119.94;;;17.23;80.79
16525;BME280;8375;33.594;-117.718;2023-04-27T04:02:20;100126.97;;;17.14;80.46
16525;BME280;8375;33.594;-117.718;2023-04-27T04:04:50;100123.84;;;17.02;81.49
16525;BME280;8375;33.594;-117.718;2023-04-27T04:07:18;100127.09;;;16.96;82.93
16525;BME280;8375;33.594;-117.718;2023-04-27T04:09:49;100130.84;;;16.85;83.55
16525;BME280;8375;33.594;-117.718;2023-04-27T04:12:17;100132.44;;;16.69;84.13
16525;BME280;8375;33.594;-117.718;2023-04-27T04:14:46;100133.81;;;16.39;86.78
16525;BME280;8375;33.594;-117.718;2023-04-27T04:17:15;100128.47;;;16.14;88.65
16525;BME280;8375;33.594;-117.718;2023-04-27T04:19:44;100132.88;;;15.87;90.86
16525;BME280;8375;33.594;-117.718;2023-04-27T04:22:13;100136.69;;;15.75;92.87
16525;BME280;8375;33.594;-117.718;2023-04-27T04:24:41;100138.09;;;15.61;93.51
16525;BME280;8375;33.594;-117.718;2023-04-27T04:27:12;100142.84;;;15.65;94.56
16525;BME280;8375;33.594;-117.718;2023-04-27T04:29:41;100148.31;;;15.72;94.14
16525;BME280;8375;33.594;-117.718;2023-04-27T04:32:10;100151.97;;;15.61;94.57
16525;BME280;8375;33.594;-117.718;2023-04-27T04:34:43;100141.97;;;15.57;95.78
16525;BME280;8375;33.594;-117.718;2023-04-27T04:37:12;100143.34;;;15.43;96.58
16525;BME280;8375;33.594;-117.718;2023-04-27T04:39:42;100138.56;;;15.38;98.15
16525;BME280;8375;33.594;-117.718;2023-04-27T04:42:12;100140.28;;;15.29;97.80
16525;BME280;8375;33.594;-117.718;2023-04-27T04:44:41;100143.59;;;15.13;99.01
16525;BME280;8375;33.594;-117.718;2023-04-27T04:47:10;100147.16;;;14.94;100.00
16525;BME280;8375;33.594;-117.718;2023-04-27T04:49:39;100145.66;;;14.91;100.00
16525;BME280;8375;33.594;-117.718;2023-04-27T04:52:07;100146.34;;;14.93;100.00
16525;BME280;8375;33.594;-117.718;2023-04-27T04:54:36;100152.81;;;14.89;100.00
16525;BME280;8375;33.594;-117.718;2023-04-27T04:57:05;100156.41;;;14.88;100.00
16525;BME280;8375;33.594;-117.718;2023-04-27T04:59:35;100161.63;;;14.88;100.00
16525;BME280;8375;33.594;-117.718;2023-04-27T05:02:04;100168.34;;;14.91;100.00
16525;BME280;8375;33.594;-117.718;2023-04-27T05:04:33;100169.19;;;14.91;100.00
16525;BME280;8375;33.594;-117.718;2023-04-27T05:07:02;100160.97;;;15.04;100.00
16525;BME280;8375;33.594;-117.718;2023-04-27T05:09:32;100159.41;;;15.11;100.00
16525;BME280;8375;33.594;-117.718;2023-04-27T05:12:02;100166.66;;;15.18;100.00
16525;BME280;8375;33.594;-117.718;2023-04-27T05:14:30;100162.47;;;15.25;100.00
16525;BME280;8375;33.594;-117.718;2023-04-27T05:17:01;100164.13;;;15.26;100.00
16525;BME280;8375;33.594;-117.718;2023-04-27T05:19:30;100157.41;;;15.23;99.98
16525;BME280;8375;33.594;-117.718;2023-04-27T05:21:58;100156.94;;;15.28;100.00
16525;BME280;8375;33.594;-117.718;2023-04-27T05:24:29;100158.38;;;15.22;100.00
16525;BME280;8375;33.594;-117.718;2023-04-27T05:26:58;100156.06;;;15.19;100.00
16525;BME280;8375;33.594;-117.718;2023-04-27T05:29:26;100157.03;;;15.18;100.00
16525;BME280;8375;33.594;-117.718;2023-04-27T05:31:55;100158.81;;;15.18;100.00
16525;BME280;8375;33.594;-117.718;2023-04-27T05:34:25;100174.38;;;15.19;100.00
16525;BME280;8375;33.594;-117.718;2023-04-27T05:36:54;100163.66;;;15.13;100.00
16525;BME280;8375;33.594;-117.718;2023-04-27T05:39:23;100157.75;;;15.10;100.00
16525;BME280;8375;33.594;-117.718;2023-04-27T05:41:51;100149.63;;;15.14;100.00
16525;BME280;8375;33.594;-117.718;2023-04-27T05:44:21;100155.53;;;15.16;100.00
16525;BME280;8375;33.594;-117.718;2023-04-27T05:46:50;100162.19;;;15.10;100.00
16525;BME280;8375;33.594;-117.718;2023-04-27T05:49:19;100147.69;;;15.16;100.00
16525;BME280;8375;33.594;-117.718;2023-04-27T05:51:49;100149.84;;;15.20;100.00
16525;BME280;8375;33.594;-117.718;2023-04-27T05:54:19;100148.72;;;15.23;100.00
16525;BME280;8375;33.594;-117.718;2023-04-27T05:56:47;100144.47;;;15.22;100.00
16525;BME280;8375;33.594;-117.718;2023-04-27T05:59:17;100148.50;;;15.16;100.00
16525;BME280;8375;33.594;-117.718;2023-04-27T06:01:45;100149.63;;;15.14;100.00
16525;BME280;8375;33.594;-117.718;2023-04-27T06:04:14;100144.00;;;15.08;100.00
16525;BME280;8375;33.594;-117.718;2023-04-27T06:06:43;100138.66;;;15.10;100.00
16525;BME280;8375;33.594;-117.718;2023-04-27T06:09:13;100142.00;;;15.02;100.00
16525;BME280;8375;33.594;-117.718;2023-04-27T06:11:42;100139.38;;;15.02;100.00
16525;BME280;8375;33.594;-117.718;2023-04-27T06:14:12;100143.94;;;15.00;100.00
16525;BME280;8375;33.594;-117.718;2023-04-27T12:55:06;100063.34;;;13.66;100.00
16525;BME280;8375;33.594;-117.718;2023-04-27T12:57:35;100067.28;;;13.70;100.00
16525;BME280;8375;33.594;-117.718;2023-04-27T13:00:05;100065.78;;;13.77;100.00
16525;BME280;8375;33.594;-117.718;2023-04-27T13:02:36;100073.19;;;13.82;100.00
16525;BME280;8375;33.594;-117.718;2023-04-27T13:05:05;100080.16;;;13.91;100.00
16525;BME280;8375;33.594;-117.718;2023-04-27T13:07:34;100085.88;;;14.04;100.00
16525;BME280;8375;33.594;-117.718;2023-04-27T13:10:05;100085.13;;;14.12;100.00
16525;BME280;8375;33.594;-117.718;2023-04-27T13:12:34;100091.88;;;14.15;100.00
16525;BME280;8375;33.594;-117.718;2023-04-27T13:15:03;100090.06;;;14.15;100.00
16525;BME280;8375;33.594;-117.718;2023-04-27T13:17:33;100101.66;;;14.03;100.00
16525;BME280;8375;33.594;-117.718;2023-04-27T13:20:02;100102.13;;;13.88;100.00
16525;BME280;8375;33.594;-117.718;2023-04-27T13:22:30;100109.44;;;13.85;100.00
16525;BME280;8375;33.594;-117.718;2023-04-27T13:24:59;100104.63;;;13.80;100.00
16525;BME280;8375;33.594;-117.718;2023-04-27T13:27:29;100104.50;;;13.82;100.00
16525;BME280;8375;33.594;-117.718;2023-04-27T13:29:58;100106.66;;;13.96;100.00
16525;BME280;8375;33.594;-117.718;2023-04-27T13:32:27;100115.56;;;13.93;100.00
16525;BME280;8375;33.594;-117.718;2023-04-27T13:34:55;100114.22;;;13.89;100.00
16525;BME280;8375;33.594;-117.718;2023-04-27T13:37:25;100110.22;;;13.85;100.00
16525;BME280;8375;33.594;-117.718;2023-04-27T13:39:53;100119.69;;;13.86;100.00
16525;BME280;8375;33.594;-117.718;2023-04-27T13:42:22;100116.81;;;13.89;100.00
16525;BME280;8375;33.594;-117.718;2023-04-27T13:44:56;100121.06;;;14.00;100.00
16525;BME280;8375;33.594;-117.718;2023-04-27T13:47:25;100125.25;;;14.11;100.00
16525;BME280;8375;33.594;-117.718;2023-04-27T13:49:55;100124.56;;;14.19;99.56
16525;BME280;8375;33.594;-117.718;2023-04-27T13:52:24;100126.50;;;14.17;99.26
16525;BME280;8375;33.594;-117.718;2023-04-27T13:54:52;100125.91;;;14.23;100.00
16525;BME280;8375;33.594;-117.718;2023-04-27T13:57:21;100136.88;;;14.27;99.71
16525;BME280;8375;33.594;-117.718;2023-04-27T13:59:50;100129.22;;;14.25;99.19
16525;BME280;8375;33.594;-117.718;2023-04-27T14:02:20;100137.94;;;14.34;99.32
16525;BME280;8375;33.594;-117.718;2023-04-27T14:04:49;100137.28;;;14.32;98.68
16525;BME280;8375;33.594;-117.718;2023-04-27T14:07:18;100145.94;;;14.32;97.85
16525;BME280;8375;33.594;-117.718;2023-04-27T14:09:47;100152.25;;;14.30;98.01
16525;BME280;8375;33.594;-117.718;2023-04-27T14:12:15;100153.78;;;14.32;98.33
16525;BME280;8375;33.594;-117.718;2023-04-27T14:14:44;100155.84;;;14.29;98.11
16525;BME280;8375;33.594;-117.718;2023-04-27T14:17:13;100162.00;;;14.37;98.58
16525;BME280;8375;33.594;-117.718;2023-04-27T14:19:43;100162.91;;;14.46;99.28
16525;BME280;8375;33.594;-117.718;2023-04-27T14:22:12;100167.66;;;14.61;97.45
16525;BME280;8375;33.594;-117.718;2023-04-27T14:24:40;100172.97;;;14.69;97.05
16525;BME280;8375;33.594;-117.718;2023-04-27T14:27:09;100174.31;;;14.45;97.76
16525;BME280;8375;33.594;-117.718;2023-04-27T14:29:38;100176.81;;;14.47;97.18
16525;BME280;8375;33.594;-117.718;2023-04-27T14:32:07;100188.75;;;14.49;97.82
16525;BME280;8375;33.594;-117.718;2023-04-27T14:34:35;100184.88;;;14.53;97.74
16525;BME280;8375;33.594;-117.718;2023-04-27T14:37:05;100190.97;;;14.44;97.41
16525;BME280;8375;33.594;-117.718;2023-04-27T14:39:34;100190.44;;;14.41;97.88
16525;BME280;8375;33.594;-117.718;2023-04-27T14:42:03;100190.28;;;14.42;98.48
16525;BME280;8375;33.594;-117.718;2023-04-27T14:44:32;100190.66;;;14.47;97.80
16525;BME280;8375;33.594;-117.718;2023-04-27T14:47:01;100200.53;;;14.53;97.03
16525;BME280;8375;33.594;-117.718;2023-04-27T14:49:30;100203.16;;;14.53;97.30
16525;BME280;8375;33.594;-117.718;2023-04-27T14:51:58;100206.06;;;14.50;97.23
16525;BME280;8375;33.594;-117.718;2023-04-27T14:54:31;100204.41;;;14.49;97.45
16525;BME280;8375;33.594;-117.718;2023-04-27T14:57:01;100205.28;;;14.40;96.73
16525;BME280;8375;33.594;-117.718;2023-04-27T14:59:29;100213.78;;;14.42;97.50
16525;BME280;8375;33.594;-117.718;2023-04-27T15:01:59;100221.34;;;14.45;97.42
16525;BME280;8375;33.594;-117.718;2023-04-27T15:04:28;100223.66;;;14.48;97.00
16525;BME280;8375;33.594;-117.718;2023-04-27T15:06:57;100229.44;;;14.52;95.99
16525;BME280;8375;33.594;-117.718;2023-04-27T15:09:25;100219.78;;;14.62;96.21
16525;BME280;8375;33.594;-117.718;2023-04-27T15:11:56;100225.56;;;14.56;95.67
16525;BME280;8375;33.594;-117.718;2023-04-27T15:14:24;100224.16;;;14.62;95.18
16525;BME280;8375;33.594;-117.718;2023-04-27T15:16:53;100230.19;;;14.72;95.09
16525;BME280;8375;33.594;-117.718;2023-04-27T15:19:22;100233.63;;;14.63;93.25
16525;BME280;8375;33.594;-117.718;2023-04-27T15:21:50;100236.25;;;14.63;94.34
16525;BME280;8375;33.594;-117.718;2023-04-27T15:24:19;100225.13;;;14.61;94.44
16525;BME280;8375;33.594;-117.718;2023-04-27T15:26:48;100226.91;;;14.70;95.74
16525;BME280;8375;33.594;-117.718;2023-04-27T15:29:18;100223.59;;;14.68;93.84
16525;BME280;8375;33.594;-117.718;2023-04-27T15:31:50;100223.75;;;14.57;94.23
16525;BME280;8375;33.594;-117.718;2023-04-27T15:34:20;100227.31;;;14.65;95.05
16525;BME280;8375;33.594;-117.718;2023-04-27T15:36:48;100224.94;;;14.82;93.70
16525;BME280;8375;33.594;-117.718;2023-04-27T15:39:18;100222.50;;;14.99;93.97
16525;BME280;8375;33.594;-117.718;2023-04-27T15:41:46;100224.63;;;15.31;93.75
16525;BME280;8375;33.594;-117.718;2023-04-27T15:44:17;100222.47;;;15.63;91.48
16525;BME280;8375;33.594;-117.718;2023-04-27T15:46:46;100225.44;;;15.86;88.32
16525;BME280;8375;33.594;-117.718;2023-04-27T15:49:14;100221.72;;;16.07;87.50
16525;BME280;8375;33.594;-117.718;2023-04-27T15:51:43;100224.69;;;16.12;85.94
16525;BME280;8375;33.594;-117.718;2023-04-27T15:54:11;100214.47;;;16.27;84.51
16525;BME280;8375;33.594;-117.718;2023-04-27T15:56:40;100217.50;;;16.83;80.96
16525;BME280;8375;33.594;-117.718;2023-04-27T15:59:09;100222.75;;;17.76;80.81
16525;BME280;8375;33.594;-117.718;2023-04-27T16:01:39;100210.56;;;19.36;72.86
16525;BME280;8375;33.594;-117.718;2023-04-27T16:04:08;100217.31;;;20.60;65.71
16525;BME280;8375;33.594;-117.718;2023-04-27T16:06:36;100218.97;;;21.57;61.78
16525;BME280;8375;33.594;-117.718;2023-04-27T16:09:05;100214.75;;;21.84;59.08
16525;BME280;8375;33.594;-117.718;2023-04-27T16:11:35;100216.09;;;21.73;57.51
16525;BME280;8375;33.594;-117.718;2023-04-27T16:14:04;100222.31;;;21.44;59.77
16525;BME280;8375;33.594;-117.718;2023-04-27T16:16:32;100221.81;;;21.33;59.35
16525;BME280;8375;33.594;-117.718;2023-04-27T16:19:03;100220.78;;;21.56;60.43
16525;BME280;8375;33.594;-117.718;2023-04-27T16:21:32;100215.28;;;21.51;59.10
16525;BME280;8375;33.594;-117.718;2023-04-27T16:24:01;100224.13;;;21.87;59.50
16525;BME280;8375;33.594;-117.718;2023-04-27T16:26:30;100224.59;;;21.97;57.51
16525;BME280;8375;33.594;-117.718;2023-04-27T16:28:59;100221.31;;;21.23;57.34
16525;BME280;8375;33.594;-117.718;2023-04-27T16:31:27;100215.75;;;21.61;58.58
16525;BME280;8375;33.594;-117.718;2023-04-27T16:33:56;100220.13;;;22.26;55.38
16525;BME280;8375;33.594;-117.718;2023-04-27T16:36:27;100225.50;;;22.88;53.69
16525;BME280;8375;33.594;-117.718;2023-04-27T16:38:58;100223.00;;;23.42;53.46
16525;BME280;8375;33.594;-117.718;2023-04-27T16:41:27;100220.47;;;25.26;47.89
16525;BME280;8375;33.594;-117.718;2023-04-27T16:43:56;100220.06;;;26.61;44.65
16525;BME280;8375;33.594;-117.718;2023-04-27T16:46:25;100226.53;;;27.80;42.44
16525;BME280;8375;33.594;-117.718;2023-04-27T16:48:53;100226.84;;;29.02;38.70
16525;BME280;8375;33.594;-117.718;2023-04-27T16:51:22;100222.41;;;29.76;37.24
16525;BME280;8375;33.594;-117.718;2023-04-27T16:53:52;100223.50;;;30.36;36.89
16525;BME280;8375;33.594;-117.718;2023-04-27T16:56:27;100230.19;;;30.83;34.43
16525;BME280;8375;33.594;-117.718;2023-04-27T16:58:56;100224.63;;;31.50;33.52
16525;BME280;8375;33.594;-117.718;2023-04-27T17:01:25;100223.81;;;32.51;32.55
16525;BME280;8375;33.594;-117.718;2023-04-27T17:03:55;100221.50;;;33.06;32.34
16525;BME280;8375;33.594;-117.718;2023-04-27T17:06:24;100216.94;;;33.02;30.81
16525;BME280;8375;33.594;-117.718;2023-04-27T17:08:55;100220.69;;;33.06;31.17
16525;BME280;8375;33.594;-117.718;2023-04-27T17:11:24;100220.03;;;32.42;32.46
16525;BME280;8375;33.594;-117.718;2023-04-27T17:13:52;100223.56;;;31.94;32.44
16525;BME280;8375;33.594;-117.718;2023-04-27T17:16:21;100216.28;;;31.84;32.84
16525;BME280;8375;33.594;-117.718;2023-04-27T17:18:52;100220.09;;;31.99;32.39
16525;BME280;8375;33.594;-117.718;2023-04-27T17:21:21;100217.59;;;31.82;32.20
16525;BME280;8375;33.594;-117.718;2023-04-27T17:23:50;100213.41;;;30.66;34.18
16525;BME280;8375;33.594;-117.718;2023-04-27T17:26:20;100212.06;;;29.79;35.51
16525;BME280;8375;33.594;-117.718;2023-04-27T17:28:49;100206.97;;;29.26;36.23
16525;BME280;8375;33.594;-117.718;2023-04-27T17:31:18;100209.63;;;29.26;37.71
16525;BME280;8375;33.594;-117.718;2023-04-27T17:33:47;100206.16;;;29.77;37.12
16525;BME280;8375;33.594;-117.718;2023-04-27T17:36:15;100208.03;;;29.42;37.20
16525;BME280;8375;33.594;-117.718;2023-04-27T17:38:44;100196.44;;;29.37;37.49
16525;BME280;8375;33.594;-117.718;2023-04-27T17:41:14;100201.53;;;28.63;37.54
16525;BME280;8375;33.594;-117.718;2023-04-27T17:43:44;100198.00;;;27.69;40.69
16525;BME280;8375;33.594;-117.718;2023-04-27T17:46:15;100205.84;;;27.40;40.25
16525;BME280;8375;33.594;-117.718;2023-04-27T17:48:43;100202.50;;;27.45;40.10
16525;BME280;8375;33.594;-117.718;2023-04-27T17:51:12;100208.00;;;27.07;40.99
16525;BME280;8375;33.594;-117.718;2023-04-27T17:53:41;100206.97;;;26.59;42.26
16525;BME280;8375;33.594;-117.718;2023-04-27T17:56:09;100201.53;;;26.35;41.84
16525;BME280;8375;33.594;-117.718;2023-04-27T17:58:38;100194.06;;;26.26;44.85
16525;BME280;8375;33.594;-117.718;2023-04-27T18:01:08;100193.31;;;26.37;43.84
16525;BME280;8375;33.594;-117.718;2023-04-27T18:03:38;100180.88;;;26.49;43.49
16525;BME280;8375;33.594;-117.718;2023-04-27T18:06:08;100190.78;;;26.61;43.03
16525;BME280;8375;33.594;-117.718;2023-04-27T18:08:37;100183.72;;;26.67;42.86
16525;BME280;8375;33.594;-117.718;2023-04-27T18:11:05;100186.09;;;27.05;42.09
16525;BME280;8375;33.594;-117.718;2023-04-27T18:13:34;100188.59;;;27.43;41.42
16525;BME280;8375;33.594;-117.718;2023-04-27T18:16:04;100183.88;;;27.69;40.47
16525;BME280;8375;33.594;-117.718;2023-04-27T18:18:34;100182.03;;;27.57;40.35
16525;BME280;8375;33.594;-117.718;2023-04-27T18:21:03;100179.56;;;27.44;41.50
16525;BME280;8375;33.594;-117.718;2023-04-27T18:23:34;100184.03;;;27.19;43.52
16525;BME280;8375;33.594;-117.718;2023-04-27T18:26:03;100179.31;;;27.33;43.38
16525;BME280;8375;33.594;-117.718;2023-04-27T18:28:32;100173.41;;;27.31;43.32
16525;BME280;8375;33.594;-117.718;2023-04-27T18:31:00;100171.44;;;26.84;42.14
16525;BME280;8375;33.594;-117.718;2023-04-27T18:33:29;100170.31;;;26.05;44.09
16525;BME280;8375;33.594;-117.718;2023-04-27T18:35:59;100156.47;;;25.59;45.95
16525;BME280;8375;33.594;-117.718;2023-04-27T18:38:28;100166.09;;;25.79;46.00
16525;BME280;8375;33.594;-117.718;2023-04-27T18:40:56;100158.69;;;25.62;44.69
16525;BME280;8375;33.594;-117.718;2023-04-27T18:43:25;100161.94;;;25.65;45.35
16525;BME280;8375;33.594;-117.718;2023-04-27T18:45:54;100159.38;;;25.95;45.76
16525;BME280;8375;33.594;-117.718;2023-04-27T18:48:23;100159.22;;;26.46;43.49
16525;BME280;8375;33.594;-117.718;2023-04-27T18:50:51;100158.22;;;26.28;45.74
16525;BME280;8375;33.594;-117.718;2023-04-27T18:53:22;100158.56;;;26.13;46.61
16525;BME280;8375;33.594;-117.718;2023-04-27T18:55:50;100151.16;;;25.78;47.60
16525;BME280;8375;33.594;-117.718;2023-04-27T18:58:19;100149.88;;;26.25;46.95
16525;BME280;8375;33.594;-117.718;2023-04-27T19:00:48;100156.53;;;26.64;45.22
16525;BME280;8375;33.594;-117.718;2023-04-27T19:03:16;100156.28;;;26.85;44.91
16525;BME280;8375;33.594;-117.718;2023-04-27T19:05:45;100159.16;;;26.83;44.71
16525;BME280;8375;33.594;-117.718;2023-04-27T19:08:14;100151.56;;;26.99;45.09
16525;BME280;8375;33.594;-117.718;2023-04-27T19:10:44;100149.47;;;27.01;45.51
16525;BME280;8375;33.594;-117.718;2023-04-27T19:13:13;100149.94;;;26.98;44.35
16525;BME280;8375;33.594;-117.718;2023-04-27T19:15:42;100153.47;;;26.79;45.27
16525;BME280;8375;33.594;-117.718;2023-04-27T19:18:11;100145.09;;;27.06;44.65